sensor_id;sensor_type;location;lat;lon;timestamp;pressure;altitude;pressure_sealevel;temperature
82297;BMP280;71899;51.992;8.648;2023-08-08T00:00:03;99971.53;;;12.79
82297;BMP280;71899;51.992;8.648;2023-08-08T00:02:30;99965.69;;;12.76
82297;BMP280;71899;51.992;8.648;2023-08-08T00:04:55;99961.09;;;12.67
82297;BMP280;71899;51.992;8.648;2023-08-08T00:07:20;99969.53;;;12.59
82297;BMP280;71899;51.992;8.648;2023-08-08T00:09:46;99964.81;;;12.64
82297;BMP280;71899;51.992;8.648;2023-08-08T00:12:11;99963.69;;;12.56
82297;BMP280;71899;51.992;8.648;2023-08-08T00:14:36;99960.13;;;12.57
82297;BMP280;71899;51.992;8.648;2023-08-08T00:17:02;99960.41;;;12.65
82297;BMP280;71899;51.992;8.648;2023-08-08T00:19:27;99955.19;;;12.76
82297;BMP280;71899;51.992;8.648;2023-08-08T00:21:53;99945.41;;;12.78
82297;BMP280;71899;51.992;8.648;2023-08-08T00:24:19;99945.97;;;12.70
82297;BMP280;71899;51.992;8.648;2023-08-08T00:26:44;99948.41;;;12.73
82297;BMP280;71899;51.992;8.648;2023-08-08T00:29:09;99946.72;;;12.72
82297;BMP280;71899;51.992;8.648;2023-08-08T00:31:34;99946.47;;;12.75
82297;BMP280;71899;51.992;8.648;2023-08-08T00:34:01;99936.97;;;12.97
82297;BMP280;71899;51.992;8.648;2023-08-08T00:36:26;99935.53;;;12.92
82297;BMP280;71899;51.992;8.648;2023-08-08T00:38:51;99930.19;;;12.94
82297;BMP280;71899;51.992;8.648;2023-08-08T00:41:17;99923.75;;;13.20
82297;BMP280;71899;51.992;8.648;2023-08-08T00:43:42;99920.94;;;13.12
82297;BMP280;71899;51.992;8.648;2023-08-08T00:46:09;99921.59;;;13.03
82297;BMP280;71899;51.992;8.648;2023-08-08T00:48:35;99923.75;;;13.20
82297;BMP280;71899;51.992;8.648;2023-08-08T00:51:00;99917.06;;;13.27
82297;BMP280;71899;51.992;8.648;2023-08-08T00:53:26;99923.41;;;13.25
82297;BMP280;71899;51.992;8.648;2023-08-08T00:55:53;99922.47;;;13.26
82297;BMP280;71899;51.992;8.648;2023-08-08T00:58:19;99912.56;;;13.29
82297;BMP280;71899;51.992;8.648;2023-08-08T01:00:45;99909.94;;;13.29
82297;BMP280;71899;51.992;8.648;2023-08-08T01:03:10;99912.56;;;13.29
82297;BMP280;71899;51.992;8.648;2023-08-08T01:05:41;99904.53;;;13.20
82297;BMP280;71899;51.992;8.648;2023-08-08T01:08:08;99910.19;;;13.26
82297;BMP280;71899;51.992;8.648;2023-08-08T01:10:37;99905.97;;;13.35
82297;BMP280;71899;51.992;8.648;2023-08-08T01:13:06;99901.56;;;13.35
82297;BMP280;71899;51.992;8.648;2023-08-08T01:15:34;99902.25;;;13.49
82297;BMP280;71899;51.992;8.648;2023-08-08T01:18:04;99893.94;;;13.44
82297;BMP280;71899;51.992;8.648;2023-08-08T01:20:32;99891.56;;;13.29
82297;BMP280;71899;51.992;8.648;2023-08-08T01:23:19;99892.84;;;13.35
82297;BMP280;71899;51.992;8.648;2023-08-08T01:25:48;99891.78;;;13.37
82297;BMP280;71899;51.992;8.648;2023-08-08T01:28:14;99886.88;;;13.44
82297;BMP280;71899;51.992;8.648;2023-08-08T01:30:40;99881.63;;;13.55
82297;BMP280;71899;51.992;8.648;2023-08-08T01:33:06;99880.03;;;13.64
82297;BMP280;71899;51.992;8.648;2023-08-08T01:35:39;99873.63;;;13.46
82297;BMP280;71899;51.992;8.648;2023-08-08T01:38:12;99877.59;;;13.40
82297;BMP280;71899;51.992;8.648;2023-08-08T01:40:38;99879.72;;;13.46
82297;BMP280;71899;51.992;8.648;2023-08-08T01:43:04;99880.19;;;13.51
82297;BMP280;71899;51.992;8.648;2023-08-08T01:45:30;99882.09;;;13.49
82297;BMP280;71899;51.992;8.648;2023-08-08T01:47:55;99882.34;;;13.46
82297;BMP280;71899;51.992;8.648;2023-08-08T01:50:22;99880.19;;;13.51
82297;BMP280;71899;51.992;8.648;2023-08-08T01:52:47;99876.22;;;13.57
82297;BMP280;71899;51.992;8.648;2023-08-08T01:55:13;99889.63;;;13.43
82297;BMP280;71899;51.992;8.648;2023-08-08T01:57:38;99885.81;;;13.47
82297;BMP280;71899;51.992;8.648;2023-08-08T02:00:06;99884.34;;;13.54
82297;BMP280;71899;51.992;8.648;2023-08-08T02:02:40;99868.50;;;13.55
82297;BMP280;71899;51.992;8.648;2023-08-08T02:05:06;99871.13;;;13.44
82297;BMP280;71899;51.992;8.648;2023-08-08T02:07:31;99870.72;;;13.60
82297;BMP280;71899;51.992;8.648;2023-08-08T02:09:57;99870.38;;;13.64
82297;BMP280;71899;51.992;8.648;2023-08-08T02:12:23;99864.28;;;13.53
82297;BMP280;71899;51.992;8.648;2023-08-08T02:14:49;99865.03;;;13.55
82297;BMP280;71899;51.992;8.648;2023-08-08T02:17:14;99867.16;;;13.61
82297;BMP280;71899;51.992;8.648;2023-08-08T02:19:39;99867.94;;;13.83
82297;BMP280;71899;51.992;8.648;2023-08-08T02:22:05;99861.22;;;13.90
82297;BMP280;71899;51.992;8.648;2023-08-08T02:24:30;99855.78;;;13.71
82297;BMP280;71899;51.992;8.648;2023-08-08T02:26:56;99860.41;;;13.79
82297;BMP280;71899;51.992;8.648;2023-08-08T02:29:21;99858.75;;;13.67
82297;BMP280;71899;51.992;8.648;2023-08-08T02:31:46;99849.81;;;13.69
82297;BMP280;71899;51.992;8.648;2023-08-08T02:34:11;99851.06;;;13.54
82297;BMP280;71899;51.992;8.648;2023-08-08T02:36:37;99851.31;;;13.51
82297;BMP280;71899;51.992;8.648;2023-08-08T02:39:02;99853.06;;;13.62
82297;BMP280;71899;51.992;8.648;2023-08-08T02:41:28;99848.19;;;13.57
82297;BMP280;71899;51.992;8.648;2023-08-08T02:43:54;99849.16;;;13.45
82297;BMP280;71899;51.992;8.648;2023-08-08T02:46:19;99847.84;;;13.51
82297;BMP280;71899;51.992;8.648;2023-08-08T02:48:44;99847.34;;;13.57
82297;BMP280;71899;51.992;8.648;2023-08-08T02:51:10;99844.91;;;13.33
82297;BMP280;71899;51.992;8.648;2023-08-08T02:53:35;99852.69;;;13.23
82297;BMP280;71899;51.992;8.648;2023-08-08T02:56:01;99854.22;;;13.26
82297;BMP280;71899;51.992;8.648;2023-08-08T02:58:31;99852.88;;;13.20
82297;BMP280;71899;51.992;8.648;2023-08-08T03:00:57;99850.38;;;13.08
82297;BMP280;71899;51.992;8.648;2023-08-08T03:03:23;99859.69;;;13.01
82297;BMP280;71899;51.992;8.648;2023-08-08T03:05:49;99849.53;;;12.96
82297;BMP280;71899;51.992;8.648;2023-08-08T03:08:16;99838.44;;;13.04
82297;BMP280;71899;51.992;8.648;2023-08-08T03:10:42;99841.44;;;12.99
82297;BMP280;71899;51.992;8.648;2023-08-08T03:13:07;99838.34;;;12.83
82297;BMP280;71899;51.992;8.648;2023-08-08T03:15:33;99832.00;;;12.74
82297;BMP280;71899;51.992;8.648;2023-08-08T03:18:00;99834.38;;;12.77
82297;BMP280;71899;51.992;8.648;2023-08-08T03:20:26;99831.66;;;12.79
82297;BMP280;71899;51.992;8.648;2023-08-08T03:22:51;99823.69;;;12.80
82297;BMP280;71899;51.992;8.648;2023-08-08T03:25:17;99820.91;;;12.71
82297;BMP280;71899;51.992;8.648;2023-08-08T03:27:42;99810.19;;;12.74
82297;BMP280;71899;51.992;8.648;2023-08-08T03:30:10;99809.25;;;12.75
82297;BMP280;71899;51.992;8.648;2023-08-08T03:32:39;99811.97;;;12.84
82297;BMP280;71899;51.992;8.648;2023-08-08T03:35:05;99811.38;;;12.92
82297;BMP280;71899;51.992;8.648;2023-08-08T03:37:31;99810.69;;;12.90
82297;BMP280;71899;51.992;8.648;2023-08-08T03:39:57;99807.22;;;12.89
82297;BMP280;71899;51.992;8.648;2023-08-08T03:42:22;99809.25;;;12.86
82297;BMP280;71899;51.992;8.648;2023-08-08T03:44:48;99806.72;;;12.84
82297;BMP280;71899;51.992;8.648;2023-08-08T03:47:13;99807.09;;;12.91
82297;BMP280;71899;51.992;8.648;2023-08-08T03:49:38;99798.41;;;12.90
82297;BMP280;71899;51.992;8.648;2023-08-08T03:52:04;99808.06;;;12.90
82297;BMP280;71899;51.992;8.648;2023-08-08T03:54:30;99799.78;;;13.06
82297;BMP280;71899;51.992;8.648;2023-08-08T03:56:55;99796.13;;;13.08
82297;BMP280;71899;51.992;8.648;2023-08-08T03:59:21;99793.13;;;13.13
82297;BMP280;71899;51.992;8.648;2023-08-08T04:01:46;99797.66;;;13.22
82297;BMP280;71899;51.992;8.648;2023-08-08T04:04:11;99799.34;;;13.23
82297;BMP280;71899;51.992;8.648;2023-08-08T04:06:36;99792.06;;;13.26
82297;BMP280;71899;51.992;8.648;2023-08-08T04:09:02;99788.34;;;13.18
82297;BMP280;71899;51.992;8.648;2023-08-08T04:11:27;99799.34;;;13.23
82297;BMP280;71899;51.992;8.648;2023-08-08T04:13:53;99796.34;;;13.16
82297;BMP280;71899;51.992;8.648;2023-08-08T04:16:18;99805.06;;;13.17
82297;BMP280;71899;51.992;8.648;2023-08-08T04:18:43;99810.78;;;13.22
82297;BMP280;71899;51.992;8.648;2023-08-08T04:21:09;99813.13;;;13.36
82297;BMP280;71899;51.992;8.648;2023-08-08T04:23:34;99807.09;;;13.56
82297;BMP280;71899;51.992;8.648;2023-08-08T04:26:00;99805.56;;;13.54
82297;BMP280;71899;51.992;8.648;2023-08-08T04:28:25;99803.44;;;13.48
82297;BMP280;71899;51.992;8.648;2023-08-08T04:30:50;99812.03;;;13.50
82297;BMP280;71899;51.992;8.648;2023-08-08T04:33:15;99811.78;;;13.53
82297;BMP280;71899;51.992;8.648;2023-08-08T04:35:41;99814.97;;;13.56
82297;BMP280;71899;51.992;8.648;2023-08-08T04:38:06;99823.78;;;13.66
82297;BMP280;71899;51.992;8.648;2023-08-08T04:40:31;99813.81;;;13.81
82297;BMP280;71899;51.992;8.648;2023-08-08T04:42:57;99806.19;;;13.78
82297;BMP280;71899;51.992;8.648;2023-08-08T04:45:22;99816.41;;;13.60
82297;BMP280;71899;51.992;8.648;2023-08-08T04:47:48;99811.63;;;13.65
82297;BMP280;71899;51.992;8.648;2023-08-08T04:50:13;99801.69;;;13.69
82297;BMP280;71899;51.992;8.648;2023-08-08T04:52:38;99794.25;;;13.74
82297;BMP280;71899;51.992;8.648;2023-08-08T04:55:04;99801.78;;;13.78
82297;BMP280;71899;51.992;8.648;2023-08-08T04:57:30;99797.88;;;13.94
82297;BMP280;71899;51.992;8.648;2023-08-08T04:59:56;99798.41;;;13.87
82297;BMP280;71899;51.992;8.648;2023-08-08T05:02:21;99802.38;;;14.03
82297;BMP280;71899;51.992;8.648;2023-08-08T05:04:47;99794.56;;;14.12
82297;BMP280;71899;51.992;8.648;2023-08-08T05:07:12;99791.41;;;13.98
82297;BMP280;71899;51.992;8.648;2023-08-08T05:09:37;99783.69;;;14.06
82297;BMP280;71899;51.992;8.648;2023-08-08T05:12:03;99778.00;;;14.21
82297;BMP280;71899;51.992;8.648;2023-08-08T05:14:28;99790.88;;;14.24
82297;BMP280;71899;51.992;8.648;2023-08-08T05:16:53;99793.41;;;14.05
82297;BMP280;71899;51.992;8.648;2023-08-08T05:19:19;99781.03;;;13.96
82297;BMP280;71899;51.992;8.648;2023-08-08T05:21:44;99786.00;;;14.20
82297;BMP280;71899;51.992;8.648;2023-08-08T05:24:09;99784.63;;;14.36
82297;BMP280;71899;51.992;8.648;2023-08-08T05:26:35;99777.44;;;14.38
82297;BMP280;71899;51.992;8.648;2023-08-08T05:29:00;99791.59;;;14.47
82297;BMP280;71899;51.992;8.648;2023-08-08T05:31:25;99781.63;;;14.41
82297;BMP280;71899;51.992;8.648;2023-08-08T05:33:50;99779.50;;;14.65
82297;BMP280;71899;51.992;8.648;2023-08-08T05:36:16;99773.97;;;14.59
82297;BMP280;71899;51.992;8.648;2023-08-08T05:38:41;99786.66;;;14.33
82297;BMP280;71899;51.992;8.648;2023-08-08T05:41:07;99784.94;;;14.43
82297;BMP280;71899;51.992;8.648;2023-08-08T05:43:33;99785.81;;;14.53
82297;BMP280;71899;51.992;8.648;2023-08-08T05:45:58;99791.81;;;14.55
82297;BMP280;71899;51.992;8.648;2023-08-08T05:48:23;99791.09;;;14.93
82297;BMP280;71899;51.992;8.648;2023-08-08T05:50:49;99786.69;;;14.94
82297;BMP280;71899;51.992;8.648;2023-08-08T05:53:14;99783.56;;;15.19
82297;BMP280;71899;51.992;8.648;2023-08-08T05:55:43;99787.84;;;15.20
82297;BMP280;71899;51.992;8.648;2023-08-08T05:58:09;99792.44;;;14.78
82297;BMP280;71899;51.992;8.648;2023-08-08T06:00:34;99791.84;;;15.05
82297;BMP280;71899;51.992;8.648;2023-08-08T06:03:00;99790.56;;;14.99
82297;BMP280;71899;51.992;8.648;2023-08-08T06:05:25;99787.31;;;15.45
82297;BMP280;71899;51.992;8.648;2023-08-08T06:07:51;99793.47;;;16.03
82297;BMP280;71899;51.992;8.648;2023-08-08T06:10:16;99790.03;;;16.59
82297;BMP280;71899;51.992;8.648;2023-08-08T06:12:42;99793.09;;;16.54
82297;BMP280;71899;51.992;8.648;2023-08-08T06:15:07;99795.75;;;16.35
82297;BMP280;71899;51.992;8.648;2023-08-08T06:17:33;99781.69;;;16.54
82297;BMP280;71899;51.992;8.648;2023-08-08T06:19:59;99781.50;;;16.18
82297;BMP280;71899;51.992;8.648;2023-08-08T06:22:24;99781.50;;;16.09
82297;BMP280;71899;51.992;8.648;2023-08-08T06:24:50;99788.88;;;16.05
82297;BMP280;71899;51.992;8.648;2023-08-08T06:27:15;99792.19;;;16.17
82297;BMP280;71899;51.992;8.648;2023-08-08T06:29:40;99796.72;;;16.34
82297;BMP280;71899;51.992;8.648;2023-08-08T06:32:06;99794.22;;;16.42
82297;BMP280;71899;51.992;8.648;2023-08-08T06:34:31;99806.31;;;16.35
82297;BMP280;71899;51.992;8.648;2023-08-08T06:36:57;99797.81;;;16.41
82297;BMP280;71899;51.992;8.648;2023-08-08T06:39:22;99798.47;;;15.97
82297;BMP280;71899;51.992;8.648;2023-08-08T06:41:48;99810.69;;;16.07
82297;BMP280;71899;51.992;8.648;2023-08-08T06:44:18;99817.34;;;15.73
82297;BMP280;71899;51.992;8.648;2023-08-08T06:46:44;99799.25;;;16.82
82297;BMP280;71899;51.992;8.648;2023-08-08T06:49:09;99794.06;;;17.98
82297;BMP280;71899;51.992;8.648;2023-08-08T06:51:34;99789.56;;;18.42
82297;BMP280;71899;51.992;8.648;2023-08-08T06:54:00;99793.06;;;19.44
82297;BMP280;71899;51.992;8.648;2023-08-08T06:56:26;99798.56;;;18.05
82297;BMP280;71899;51.992;8.648;2023-08-08T06:58:52;99795.84;;;17.26
82297;BMP280;71899;51.992;8.648;2023-08-08T07:01:17;99798.06;;;17.66
82297;BMP280;71899;51.992;8.648;2023-08-08T07:03:42;99797.63;;;17.89
82297;BMP280;71899;51.992;8.648;2023-08-08T07:06:09;99798.59;;;17.70
82297;BMP280;71899;51.992;8.648;2023-08-08T07:08:34;99792.09;;;18.00
82297;BMP280;71899;51.992;8.648;2023-08-08T07:11:00;99795.09;;;17.52
82297;BMP280;71899;51.992;8.648;2023-08-08T07:13:25;99785.28;;;18.23
82297;BMP280;71899;51.992;8.648;2023-08-08T07:15:51;99778.34;;;18.73
82297;BMP280;71899;51.992;8.648;2023-08-08T07:18:16;99787.34;;;19.39
82297;BMP280;71899;51.992;8.648;2023-08-08T07:20:41;99777.75;;;18.79
82297;BMP280;71899;51.992;8.648;2023-08-08T07:23:06;99789.78;;;18.74
82297;BMP280;71899;51.992;8.648;2023-08-08T07:25:32;99785.81;;;19.20
82297;BMP280;71899;51.992;8.648;2023-08-08T07:27:57;99774.69;;;18.41
82297;BMP280;71899;51.992;8.648;2023-08-08T07:30:23;99775.75;;;18.04
82297;BMP280;71899;51.992;8.648;2023-08-08T07:32:49;99772.34;;;18.12
82297;BMP280;71899;51.992;8.648;2023-08-08T07:35:14;99767.09;;;17.94
82297;BMP280;71899;51.992;8.648;2023-08-08T07:37:40;99758.75;;;17.18
82297;BMP280;71899;51.992;8.648;2023-08-08T07:40:16;99774.72;;;17.44
82297;BMP280;71899;51.992;8.648;2023-08-08T07:42:43;99772.53;;;16.58
82297;BMP280;71899;51.992;8.648;2023-08-08T07:45:08;99778.97;;;16.82
82297;BMP280;71899;51.992;8.648;2023-08-08T07:47:34;99771.81;;;16.65
82297;BMP280;71899;51.992;8.648;2023-08-08T07:49:59;99766.16;;;16.51
82297;BMP280;71899;51.992;8.648;2023-08-08T07:52:25;99766.19;;;17.50
82297;BMP280;71899;51.992;8.648;2023-08-08T07:54:51;99768.09;;;18.19
82297;BMP280;71899;51.992;8.648;2023-08-08T07:57:16;99772.41;;;18.71
82297;BMP280;71899;51.992;8.648;2023-08-08T07:59:41;99772.91;;;18.49
82297;BMP280;71899;51.992;8.648;2023-08-08T08:02:07;99760.91;;;18.63
82297;BMP280;71899;51.992;8.648;2023-08-08T08:04:33;99764.03;;;18.07
82297;BMP280;71899;51.992;8.648;2023-08-08T08:06:58;99770.44;;;18.22
82297;BMP280;71899;51.992;8.648;2023-08-08T08:09:23;99760.84;;;19.22
82297;BMP280;71899;51.992;8.648;2023-08-08T08:11:49;99761.91;;;19.70
82297;BMP280;71899;51.992;8.648;2023-08-08T08:14:14;99767.53;;;19.59
82297;BMP280;71899;51.992;8.648;2023-08-08T08:16:39;99764.13;;;18.49
82297;BMP280;71899;51.992;8.648;2023-08-08T08:19:05;99757.75;;;17.19
82297;BMP280;71899;51.992;8.648;2023-08-08T08:21:30;99755.63;;;17.05
82297;BMP280;71899;51.992;8.648;2023-08-08T08:23:55;99760.13;;;17.40
82297;BMP280;71899;51.992;8.648;2023-08-08T08:26:20;99759.41;;;16.75
82297;BMP280;71899;51.992;8.648;2023-08-08T08:28:46;99754.56;;;16.98
82297;BMP280;71899;51.992;8.648;2023-08-08T08:31:11;99754.66;;;16.79
82297;BMP280;71899;51.992;8.648;2023-08-08T08:33:36;99749.81;;;16.74
82297;BMP280;71899;51.992;8.648;2023-08-08T08:36:02;99742.63;;;17.39
82297;BMP280;71899;51.992;8.648;2023-08-08T08:38:27;99742.31;;;17.24
82297;BMP280;71899;51.992;8.648;2023-08-08T08:40:54;99745.94;;;17.76
82297;BMP280;71899;51.992;8.648;2023-08-08T08:43:21;99730.91;;;18.88
82297;BMP280;71899;51.992;8.648;2023-08-08T08:45:50;99727.22;;;20.36
82297;BMP280;71899;51.992;8.648;2023-08-08T08:48:17;99716.31;;;21.01
82297;BMP280;71899;51.992;8.648;2023-08-08T08:50:45;99723.38;;;22.66
82297;BMP280;71899;51.992;8.648;2023-08-08T08:53:12;99737.25;;;22.91
82297;BMP280;71899;51.992;8.648;2023-08-08T08:55:39;99722.78;;;23.36
82297;BMP280;71899;51.992;8.648;2023-08-08T08:58:05;99729.06;;;22.04
82297;BMP280;71899;51.992;8.648;2023-08-08T09:00:31;99737.34;;;20.33
82297;BMP280;71899;51.992;8.648;2023-08-08T09:02:56;99742.84;;;19.50
82297;BMP280;71899;51.992;8.648;2023-08-08T09:05:24;99751.53;;;17.73
82297;BMP280;71899;51.992;8.648;2023-08-08T09:07:50;99764.94;;;17.45
82297;BMP280;71899;51.992;8.648;2023-08-08T09:10:17;99761.56;;;17.52
82297;BMP280;71899;51.992;8.648;2023-08-08T09:12:43;99748.97;;;16.83
82297;BMP280;71899;51.992;8.648;2023-08-08T09:15:09;99762.00;;;16.85
82297;BMP280;71899;51.992;8.648;2023-08-08T09:17:35;99751.50;;;16.66
82297;BMP280;71899;51.992;8.648;2023-08-08T09:20:01;99743.28;;;17.41
82297;BMP280;71899;51.992;8.648;2023-08-08T09:22:27;99739.78;;;19.21
82297;BMP280;71899;51.992;8.648;2023-08-08T09:24:54;99733.38;;;21.83
82297;BMP280;71899;51.992;8.648;2023-08-08T09:27:20;99732.25;;;23.38
82297;BMP280;71899;51.992;8.648;2023-08-08T09:29:45;99724.22;;;24.30
82297;BMP280;71899;51.992;8.648;2023-08-08T09:32:11;99715.31;;;26.18
82297;BMP280;71899;51.992;8.648;2023-08-08T09:34:41;99711.66;;;24.99
82297;BMP280;71899;51.992;8.648;2023-08-08T09:37:06;99732.13;;;22.60
82297;BMP280;71899;51.992;8.648;2023-08-08T09:39:31;99730.31;;;23.11
82297;BMP280;71899;51.992;8.648;2023-08-08T09:41:57;99715.28;;;22.59
82297;BMP280;71899;51.992;8.648;2023-08-08T09:44:29;99717.69;;;23.19
82297;BMP280;71899;51.992;8.648;2023-08-08T09:46:55;99708.06;;;23.82
82297;BMP280;71899;51.992;8.648;2023-08-08T09:49:21;99711.97;;;24.42
82297;BMP280;71899;51.992;8.648;2023-08-08T09:51:47;99702.75;;;24.51
82297;BMP280;71899;51.992;8.648;2023-08-08T09:54:13;99708.19;;;25.11
82297;BMP280;71899;51.992;8.648;2023-08-08T09:56:39;99701.81;;;24.65
82297;BMP280;71899;51.992;8.648;2023-08-08T09:59:05;99709.75;;;25.60
82297;BMP280;71899;51.992;8.648;2023-08-08T10:01:31;99708.53;;;23.07
82297;BMP280;71899;51.992;8.648;2023-08-08T10:03:57;99719.06;;;22.65
82297;BMP280;71899;51.992;8.648;2023-08-08T10:06:23;99713.75;;;22.36
82297;BMP280;71899;51.992;8.648;2023-08-08T10:08:49;99725.25;;;21.39
82297;BMP280;71899;51.992;8.648;2023-08-08T10:11:15;99716.44;;;21.61
82297;BMP280;71899;51.992;8.648;2023-08-08T10:13:47;99712.06;;;23.72
82297;BMP280;71899;51.992;8.648;2023-08-08T10:16:15;99722.13;;;23.97
82297;BMP280;71899;51.992;8.648;2023-08-08T10:18:40;99710.44;;;23.13
82297;BMP280;71899;51.992;8.648;2023-08-08T10:21:06;99717.59;;;22.62
82297;BMP280;71899;51.992;8.648;2023-08-08T10:23:38;99728.66;;;21.70
82297;BMP280;71899;51.992;8.648;2023-08-08T10:26:04;99727.69;;;20.87
82297;BMP280;71899;51.992;8.648;2023-08-08T10:28:31;99732.47;;;20.44
82297;BMP280;71899;51.992;8.648;2023-08-08T10:31:01;99745.50;;;19.66
82297;BMP280;71899;51.992;8.648;2023-08-08T10:33:42;99738.03;;;20.10
82297;BMP280;71899;51.992;8.648;2023-08-08T10:36:09;99735.91;;;20.69
82297;BMP280;71899;51.992;8.648;2023-08-08T10:38:48;99727.31;;;21.51
82297;BMP280;71899;51.992;8.648;2023-08-08T10:41:22;99729.09;;;22.48
82297;BMP280;71899;51.992;8.648;2023-08-08T10:43:55;99728.50;;;23.11
82297;BMP280;71899;51.992;8.648;2023-08-08T10:46:32;99722.31;;;24.17
82297;BMP280;71899;51.992;8.648;2023-08-08T10:49:00;99714.13;;;25.00
82297;BMP280;71899;51.992;8.648;2023-08-08T10:51:37;99708.63;;;24.67
82297;BMP280;71899;51.992;8.648;2023-08-08T10:54:06;99714.84;;;24.12
82297;BMP280;71899;51.992;8.648;2023-08-08T10:56:35;99714.31;;;23.96
82297;BMP280;71899;51.992;8.648;2023-08-08T10:59:13;99702.34;;;22.56
82297;BMP280;71899;51.992;8.648;2023-08-08T11:01:40;99717.28;;;21.99
82297;BMP280;71899;51.992;8.648;2023-08-08T11:04:05;99715.28;;;20.32
82297;BMP280;71899;51.992;8.648;2023-08-08T11:06:32;99739.69;;;19.95
82297;BMP280;71899;51.992;8.648;2023-08-08T11:08:58;99716.31;;;19.91
82297;BMP280;71899;51.992;8.648;2023-08-08T11:11:23;99723.97;;;19.94
82297;BMP280;71899;51.992;8.648;2023-08-08T11:13:51;99707.09;;;20.50
82297;BMP280;71899;51.992;8.648;2023-08-08T11:16:16;99708.41;;;20.54
82297;BMP280;71899;51.992;8.648;2023-08-08T11:18:42;99712.31;;;21.36
82297;BMP280;71899;51.992;8.648;2023-08-08T11:21:10;99713.66;;;21.54
82297;BMP280;71899;51.992;8.648;2023-08-08T11:23:36;99704.84;;;20.69
82297;BMP280;71899;51.992;8.648;2023-08-08T11:26:04;99709.97;;;20.79
82297;BMP280;71899;51.992;8.648;2023-08-08T11:28:29;99698.19;;;22.83
82297;BMP280;71899;51.992;8.648;2023-08-08T11:30:55;99693.66;;;24.80
82297;BMP280;71899;51.992;8.648;2023-08-08T11:33:20;99687.09;;;25.69
82297;BMP280;71899;51.992;8.648;2023-08-08T11:35:46;99686.28;;;25.75
82297;BMP280;71899;51.992;8.648;2023-08-08T11:38:12;99692.03;;;25.65
82297;BMP280;71899;51.992;8.648;2023-08-08T11:40:38;99700.06;;;24.44
82297;BMP280;71899;51.992;8.648;2023-08-08T11:43:04;99708.34;;;23.09
82297;BMP280;71899;51.992;8.648;2023-08-08T11:45:31;99702.13;;;23.87
82297;BMP280;71899;51.992;8.648;2023-08-08T11:47:56;99684.06;;;23.61
82297;BMP280;71899;51.992;8.648;2023-08-08T11:50:24;99684.41;;;22.80
82297;BMP280;71899;51.992;8.648;2023-08-08T11:52:52;99700.06;;;22.24
82297;BMP280;71899;51.992;8.648;2023-08-08T11:55:18;99708.38;;;21.92
82297;BMP280;71899;51.992;8.648;2023-08-08T11:57:47;99702.72;;;22.83
82297;BMP280;71899;51.992;8.648;2023-08-08T12:00:13;99713.19;;;22.11
82297;BMP280;71899;51.992;8.648;2023-08-08T12:02:42;99707.88;;;22.26
82297;BMP280;71899;51.992;8.648;2023-08-08T12:05:13;99718.59;;;21.80
82297;BMP280;71899;51.992;8.648;2023-08-08T12:07:42;99712.28;;;21.13
82297;BMP280;71899;51.992;8.648;2023-08-08T12:10:20;99712.00;;;20.69
82297;BMP280;71899;51.992;8.648;2023-08-08T12:12:51;99708.25;;;20.86
82297;BMP280;71899;51.992;8.648;2023-08-08T12:15:17;99701.56;;;21.29
82297;BMP280;71899;51.992;8.648;2023-08-08T12:17:42;99707.53;;;21.00
82297;BMP280;71899;51.992;8.648;2023-08-08T12:20:09;99697.47;;;21.41
82297;BMP280;71899;51.992;8.648;2023-08-08T12:22:37;99697.19;;;21.96
82297;BMP280;71899;51.992;8.648;2023-08-08T12:25:03;99685.06;;;21.34
82297;BMP280;71899;51.992;8.648;2023-08-08T12:27:30;99689.31;;;21.80
82297;BMP280;71899;51.992;8.648;2023-08-08T12:29:55;99676.63;;;22.19
82297;BMP280;71899;51.992;8.648;2023-08-08T12:32:21;99686.84;;;22.45
82297;BMP280;71899;51.992;8.648;2023-08-08T12:34:50;99682.88;;;22.41
82297;BMP280;71899;51.992;8.648;2023-08-08T12:37:15;99679.25;;;22.93
82297;BMP280;71899;51.992;8.648;2023-08-08T12:39:41;99668.81;;;23.55
82297;BMP280;71899;51.992;8.648;2023-08-08T12:42:06;99668.75;;;23.48
82297;BMP280;71899;51.992;8.648;2023-08-08T12:44:32;99674.28;;;23.68
82297;BMP280;71899;51.992;8.648;2023-08-08T12:46:57;99671.47;;;22.77
82297;BMP280;71899;51.992;8.648;2023-08-08T12:49:22;99658.00;;;22.34
82297;BMP280;71899;51.992;8.648;2023-08-08T12:51:50;99668.09;;;22.68
82297;BMP280;71899;51.992;8.648;2023-08-08T12:54:15;99673.44;;;23.04
82297;BMP280;71899;51.992;8.648;2023-08-08T12:56:40;99668.59;;;23.78
82297;BMP280;71899;51.992;8.648;2023-08-08T12:59:06;99668.25;;;24.49
82297;BMP280;71899;51.992;8.648;2023-08-08T13:01:31;99666.16;;;24.10
82297;BMP280;71899;51.992;8.648;2023-08-08T13:03:57;99676.28;;;23.23
82297;BMP280;71899;51.992;8.648;2023-08-08T13:06:22;99685.34;;;21.99
82297;BMP280;71899;51.992;8.648;2023-08-08T13:08:48;99669.56;;;22.41
82297;BMP280;71899;51.992;8.648;2023-08-08T13:11:13;99686.03;;;21.78
82297;BMP280;71899;51.992;8.648;2023-08-08T13:13:38;99679.66;;;22.46
82297;BMP280;71899;51.992;8.648;2023-08-08T13:16:04;99679.19;;;22.86
82297;BMP280;71899;51.992;8.648;2023-08-08T13:18:29;99672.13;;;23.36
82297;BMP280;71899;51.992;8.648;2023-08-08T13:20:55;99672.22;;;22.41
82297;BMP280;71899;51.992;8.648;2023-08-08T13:23:20;99678.38;;;22.42
82297;BMP280;71899;51.992;8.648;2023-08-08T13:25:46;99670.22;;;22.43
82297;BMP280;71899;51.992;8.648;2023-08-08T13:28:11;99672.22;;;23.06
82297;BMP280;71899;51.992;8.648;2023-08-08T13:30:37;99679.38;;;22.85
82297;BMP280;71899;51.992;8.648;2023-08-08T13:33:03;99687.38;;;21.74
82297;BMP280;71899;51.992;8.648;2023-08-08T13:35:28;99671.06;;;22.14
82297;BMP280;71899;51.992;8.648;2023-08-08T13:37:55;99678.50;;;21.82
82297;BMP280;71899;51.992;8.648;2023-08-08T13:40:20;99677.31;;;22.87
82297;BMP280;71899;51.992;8.648;2023-08-08T13:42:46;99681.16;;;24.39
82297;BMP280;71899;51.992;8.648;2023-08-08T13:45:16;99689.50;;;22.75
82297;BMP280;71899;51.992;8.648;2023-08-08T13:47:41;99694.47;;;21.82
82297;BMP280;71899;51.992;8.648;2023-08-08T13:50:07;99704.34;;;20.66
82297;BMP280;71899;51.992;8.648;2023-08-08T13:52:33;99694.03;;;20.32
82297;BMP280;71899;51.992;8.648;2023-08-08T13:54:59;99710.34;;;19.97
82297;BMP280;71899;51.992;8.648;2023-08-08T13:57:24;99709.84;;;19.85
82297;BMP280;71899;51.992;8.648;2023-08-08T13:59:49;99717.34;;;19.65
82297;BMP280;71899;51.992;8.648;2023-08-08T14:02:15;99704.72;;;19.75